Time;durP1;ratioP1;P1;durP2;ratioP2;P2;SDS_P1;SDS_P2;PMS_P1;PMS_P2;Temp;Humidity;BMP_temperature;BMP_pressure;BME280_temperature;BME280_humidity;BME280_pressure;Samples;Min_cycle;Max_cycle;Signal;HPM_P1;HPM_P2
2021/04/03 06:10:09;;;;;;;;;;;;;;;3.92;nan;99932.53;5709019;22;21243;-85
2021/04/03 06:12:46;;;;;;;;;;;;;;;3.70;nan;99939.97;5036049;28;19989;-86
2021/04/03 06:15:16;;;;;;;;;;;;;;;3.88;nan;99948.66;5047256;28;20001;-87
2021/04/03 06:17:43;;;;;;;;;;;;;;;3.86;nan;99945.22;5034062;28;19928;-86
2021/04/03 06:20:09;;;;;;;;;;;;;;;4.08;nan;99951.38;5034965;28;19952;-86
2021/04/03 06:22:44;;;;;;;;;;;;;;;4.40;nan;99959.31;5053012;28;20029;-87
2021/04/03 06:25:10;;;;;;;;;;;;;;;4.40;nan;99965.28;5047510;28;19916;-88
2021/04/03 06:27:35;;;;;;;;;;;;;;;4.34;nan;99969.47;5052237;28;19935;-88
2021/04/03 06:30:13;;;;;;;;;;;;;;;4.23;nan;99966.81;5034677;28;20323;-88
2021/04/03 06:32:38;;;;;;;;;;;;;;;4.40;nan;99969.50;5052763;28;19924;-89
2021/04/03 07:30:50;;;;;;;;;;;;;;;5.17;nan;100021.97;5610513;22;19991;-77
2021/04/03 07:33:17;;;;;;;;;;;;;;;5.01;nan;100021.00;5014402;28;19928;-78
2021/04/03 07:35:46;;;;;;;;;;;;;;;5.06;nan;100017.66;5054654;28;19978;-77
2021/04/03 07:38:13;;;;;;;;;;;;;;;5.18;nan;100030.50;5033450;28;19947;-76
2021/04/03 07:40:48;;;;;;;;;;;;;;;5.22;nan;100029.66;5038430;28;20462;-77
2021/04/03 07:43:29;;;;;;;;;;;;;;;5.53;nan;100037.50;5041314;28;20026;-77
2021/04/03 07:45:55;;;;;;;;;;;;;;;5.09;nan;100038.09;5056678;28;19916;-78
2021/04/03 07:48:39;;;;;;;;;;;;;;;5.33;nan;100043.34;5044064;28;19995;-79
2021/04/03 07:51:05;;;;;;;;;;;;;;;5.31;nan;100052.69;5044104;28;19913;-76
2021/04/03 07:53:34;;;;;;;;;;;;;;;5.39;nan;100053.63;5026777;28;19916;-76
2021/04/03 07:55:59;;;;;;;;;;;;;;;5.40;nan;100049.34;5060753;28;19973;-76
2021/04/03 07:58:25;;;;;;;;;;;;;;;5.67;nan;100063.97;5024991;28;19920;-76
2021/04/03 08:00:52;;;;;;;;;;;;;;;5.70;nan;100058.88;5041231;28;20029;-76
2021/04/03 08:03:24;;;;;;;;;;;;;;;5.92;nan;100058.97;5043502;28;19954;-77
2021/04/03 08:05:49;;;;;;;;;;;;;;;5.52;nan;100066.44;5042186;28;19917;-76
2021/04/03 08:08:18;;;;;;;;;;;;;;;5.37;nan;100073.19;5022603;28;19924;-76
2021/04/03 08:10:44;;;;;;;;;;;;;;;5.16;nan;100079.00;5043459;28;19947;-77
2021/04/03 08:13:10;;;;;;;;;;;;;;;5.19;nan;100089.22;5028025;28;19974;-77
2021/04/03 08:15:35;;;;;;;;;;;;;;;5.33;nan;100088.47;5061941;28;19929;-76
2021/04/03 08:18:01;;;;;;;;;;;;;;;5.61;nan;100089.50;5062470;28;20404;-77
2021/04/03 08:20:26;;;;;;;;;;;;;;;5.58;nan;100092.03;5042800;28;19924;-76
2021/04/03 08:22:58;;;;;;;;;;;;;;;5.31;nan;100092.72;5043328;28;19963;-76
2021/04/03 08:25:23;;;;;;;;;;;;;;;5.26;nan;100105.47;5061423;28;20282;-76
2021/04/03 08:27:48;;;;;;;;;;;;;;;5.28;nan;100103.78;5041732;28;19916;-76
2021/04/03 08:30:21;;;;;;;;;;;;;;;5.38;nan;100110.66;5041940;28;20284;-76
2021/04/03 08:33:09;;;;;;;;;;;;;;;5.72;nan;100113.41;5059359;28;19920;-76
2021/04/03 08:35:35;;;;;;;;;;;;;;;5.18;nan;100119.88;5042630;28;19916;-76
2021/04/03 08:38:08;;;;;;;;;;;;;;;5.00;nan;100115.47;5040532;28;20748;-76
2021/04/03 08:40:33;;;;;;;;;;;;;;;5.28;nan;100111.44;5037957;28;20740;-76
2021/04/03 08:42:59;;;;;;;;;;;;;;;5.60;nan;100119.31;5025519;28;19920;-76
2021/04/03 08:45:24;;;;;;;;;;;;;;;5.42;nan;100114.94;5059443;28;19924;-76
2021/04/03 08:47:50;;;;;;;;;;;;;;;5.45;nan;100120.09;5040530;28;19916;-76
2021/04/03 08:50:15;;;;;;;;;;;;;;;5.36;nan;100125.13;5039384;28;19912;-76
2021/04/03 08:52:41;;;;;;;;;;;;;;;5.67;nan;100122.75;5038424;28;19965;-76
2021/04/03 08:55:06;;;;;;;;;;;;;;;5.39;nan;100125.13;5038002;28;19920;-76
2021/04/03 08:57:31;;;;;;;;;;;;;;;5.32;nan;100125.94;5055132;28;19920;-76
2021/04/03 09:00:00;;;;;;;;;;;;;;;5.53;nan;100132.06;5023421;28;19989;-76
2021/04/03 09:02:25;;;;;;;;;;;;;;;5.77;nan;100132.22;5031215;28;19924;-77
2021/04/03 09:04:51;;;;;;;;;;;;;;;5.71;nan;100137.28;5037903;28;19924;-76
2021/04/03 09:07:32;;;;;;;;;;;;;;;5.86;nan;100122.03;5058227;28;19977;-76
2021/04/03 09:10:07;;;;;;;;;;;;;;;5.30;nan;100130.19;5037703;28;19916;-76
2021/04/03 09:12:32;;;;;;;;;;;;;;;5.40;nan;100142.16;5056083;28;19990;-76
2021/04/03 09:14:57;;;;;;;;;;;;;;;5.74;nan;100133.88;5039199;28;19925;-76
2021/04/03 09:17:24;;;;;;;;;;;;;;;6.04;nan;100136.66;5024524;28;20003;-76
2021/04/03 09:19:50;;;;;;;;;;;;;;;5.84;nan;100140.78;5041219;28;19956;-76
2021/04/03 09:22:17;;;;;;;;;;;;;;;6.13;nan;100140.91;5041225;28;19962;-76
2021/04/03 09:24:46;;;;;;;;;;;;;;;6.40;nan;100135.06;5022017;28;19970;-76
2021/04/03 09:27:15;;;;;;;;;;;;;;;6.22;nan;100133.28;5036874;28;20623;-76
2021/04/03 09:29:42;;;;;;;;;;;;;;;5.94;nan;100134.00;5037199;28;19913;-76
2021/04/03 09:32:08;;;;;;;;;;;;;;;6.40;nan;100139.31;5036925;28;19940;-76
2021/04/03 09:34:33;;;;;;;;;;;;;;;6.86;nan;100134.31;5037854;28;20479;-76
2021/04/03 09:37:19;;;;;;;;;;;;;;;6.56;nan;100130.84;5055650;28;19916;-76
2021/04/03 09:39:44;;;;;;;;;;;;;;;6.57;nan;100127.44;5055757;28;19986;-75
2021/04/03 09:42:13;;;;;;;;;;;;;;;6.55;nan;100128.28;5057330;28;19956;-77
2021/04/03 09:44:39;;;;;;;;;;;;;;;6.45;nan;100129.94;5054763;28;19940;-77
2021/04/03 09:47:04;;;;;;;;;;;;;;;6.37;nan;100118.84;5056346;28;19916;-76
2021/04/03 09:49:30;;;;;;;;;;;;;;;6.74;nan;100122.34;5039137;28;20083;-76
2021/04/03 09:51:58;;;;;;;;;;;;;;;6.60;nan;100127.44;5023609;28;20057;-76
2021/04/03 09:54:23;;;;;;;;;;;;;;;7.01;nan;100118.97;5053869;28;19978;-76
2021/04/03 09:56:49;;;;;;;;;;;;;;;7.01;nan;100118.13;5036973;28;19963;-76
2021/04/03 09:59:14;;;;;;;;;;;;;;;6.58;nan;100118.91;5055383;28;20399;-76
2021/04/03 10:01:40;;;;;;;;;;;;;;;6.77;nan;100108.69;5035596;28;19924;-76
2021/04/03 10:04:05;;;;;;;;;;;;;;;6.59;nan;100115.50;5019989;28;19923;-76
2021/04/03 10:06:30;;;;;;;;;;;;;;;7.38;nan;100113.81;5054526;28;20282;-76
2021/04/03 10:08:56;;;;;;;;;;;;;;;7.38;nan;100112.97;5036802;28;20462;-76
2021/04/03 10:11:21;;;;;;;;;;;;;;;7.92;nan;100114.56;5053966;28;19920;-77
2021/04/03 10:13:47;;;;;;;;;;;;;;;7.89;nan;100112.00;5056236;28;20396;-77
2021/04/03 10:16:12;;;;;;;;;;;;;;;8.09;nan;100108.50;5039549;28;19920;-77
2021/04/03 10:18:38;;;;;;;;;;;;;;;10.32;nan;100110.09;5039413;28;19925;-77
2021/04/03 10:21:03;;;;;;;;;;;;;;;10.20;nan;100115.38;5054598;28;20416;-77
2021/04/03 10:23:29;;;;;;;;;;;;;;;9.81;nan;100112.41;5037280;28;19930;-76
2021/04/03 10:25:54;;;;;;;;;;;;;;;7.53;nan;100118.94;5037832;28;20535;-77
2021/04/03 10:28:19;;;;;;;;;;;;;;;9.38;nan;100117.97;5021304;28;19985;-77
2021/04/03 10:30:45;;;;;;;;;;;;;;;7.88;nan;100124.84;5038677;28;19924;-76
2021/04/03 10:33:10;;;;;;;;;;;;;;;8.42;nan;100127.22;5021230;28;19931;-76
2021/04/03 10:35:36;;;;;;;;;;;;;;;8.14;nan;100120.47;5039401;28;19927;-77
2021/04/03 10:38:02;;;;;;;;;;;;;;;7.90;nan;100123.97;5055342;28;20009;-76
2021/04/03 10:40:27;;;;;;;;;;;;;;;6.98;nan;100129.22;5022521;28;19955;-77
2021/04/03 10:42:53;;;;;;;;;;;;;;;7.54;nan;100125.75;5032571;28;20904;-75
2021/04/03 10:45:18;;;;;;;;;;;;;;;7.06;nan;100129.22;5034687;28;19931;-76
2021/04/03 10:47:43;;;;;;;;;;;;;;;7.45;nan;100135.16;5055265;28;19916;-75
2021/04/03 10:50:09;;;;;;;;;;;;;;;8.03;nan;100134.19;5035671;28;19927;-76
2021/04/03 10:52:35;;;;;;;;;;;;;;;8.35;nan;100132.34;5036364;28;20659;-76
2021/04/03 10:55:00;;;;;;;;;;;;;;;8.68;nan;100125.34;5053641;28;20003;-75
2021/04/03 10:57:25;;;;;;;;;;;;;;;9.24;nan;100124.94;5036130;28;19948;-76
2021/04/03 10:59:51;;;;;;;;;;;;;;;10.11;nan;100126.63;5053257;28;20364;-75
2021/04/03 11:02:17;;;;;;;;;;;;;;;8.81;nan;100135.56;5053096;28;19971;-76
2021/04/03 11:04:42;;;;;;;;;;;;;;;8.25;nan;100135.81;5036015;28;19928;-75
2021/04/03 11:07:08;;;;;;;;;;;;;;;7.78;nan;100136.84;5053028;28;20407;-75
2021/04/03 11:09:33;;;;;;;;;;;;;;;7.96;nan;100133.38;5056748;28;19917;-76
2021/04/03 11:11:58;;;;;;;;;;;;;;;8.44;nan;100130.63;5020359;28;19921;-75
2021/04/03 11:14:24;;;;;;;;;;;;;;;8.82;nan;100120.13;5021828;28;19938;-75
2021/04/03 11:16:49;;;;;;;;;;;;;;;9.03;nan;100126.81;5020282;28;19923;-76
2021/04/03 11:19:15;;;;;;;;;;;;;;;9.40;nan;100116.25;5055102;28;20376;-76
2021/04/03 11:21:40;;;;;;;;;;;;;;;9.61;nan;100115.19;5021336;28;19925;-76
2021/04/03 11:24:06;;;;;;;;;;;;;;;8.97;nan;100126.88;5024415;28;19970;-76
2021/04/03 11:26:31;;;;;;;;;;;;;;;9.20;nan;100122.41;5040673;28;19916;-76
2021/04/03 11:28:57;;;;;;;;;;;;;;;8.96;nan;100125.16;5041108;28;19951;-76
2021/04/03 11:31:23;;;;;;;;;;;;;;;7.89;nan;100135.09;5023873;28;19925;-76
2021/04/03 11:33:48;;;;;;;;;;;;;;;8.53;nan;100135.69;5041270;28;19920;-76
2021/04/03 11:36:14;;;;;;;;;;;;;;;8.31;nan;100130.66;5040325;28;19916;-76
2021/04/03 11:38:39;;;;;;;;;;;;;;;8.99;nan;100127.72;5040686;28;19916;-75
2021/04/03 11:41:05;;;;;;;;;;;;;;;10.28;nan;100126.41;5040828;28;20308;-76
2021/04/03 11:43:30;;;;;;;;;;;;;;;12.98;nan;100111.22;5040755;28;19999;-75
2021/04/03 11:45:56;;;;;;;;;;;;;;;11.99;nan;100114.25;5059217;28;19986;-76
2021/04/03 11:48:21;;;;;;;;;;;;;;;11.42;nan;100114.41;5059483;28;19920;-76
2021/04/03 11:50:47;;;;;;;;;;;;;;;9.72;nan;100128.78;5059963;28;19916;-76
2021/04/03 11:53:13;;;;;;;;;;;;;;;9.60;nan;100134.91;5042193;28;19963;-76
2021/04/03 11:55:38;;;;;;;;;;;;;;;9.28;nan;100124.91;5042876;28;19920;-76
2021/04/03 11:58:04;;;;;;;;;;;;;;;9.64;nan;100123.69;5042375;28;20419;-76
2021/04/03 12:00:29;;;;;;;;;;;;;;;9.56;nan;100122.09;5041925;28;19920;-76
2021/04/03 12:02:54;;;;;;;;;;;;;;;9.52;nan;100121.25;5059231;28;19913;-76
2021/04/03 12:05:20;;;;;;;;;;;;;;;9.60;nan;100119.47;5056822;28;20459;-76
2021/04/03 12:07:45;;;;;;;;;;;;;;;10.56;nan;100123.50;5057485;28;19920;-76
2021/04/03 12:10:12;;;;;;;;;;;;;;;10.64;nan;100121.69;5043257;28;19932;-76
2021/04/03 12:12:39;;;;;;;;;;;;;;;10.20;nan;100123.94;5061278;28;20296;-76
2021/04/03 12:15:06;;;;;;;;;;;;;;;9.51;nan;100127.28;5042801;28;19969;-76
2021/04/03 12:17:31;;;;;;;;;;;;;;;10.04;nan;100120.69;5042205;28;19930;-76
2021/04/03 12:19:57;;;;;;;;;;;;;;;10.34;nan;100113.50;5041491;28;19920;-76
2021/04/03 12:22:22;;;;;;;;;;;;;;;10.07;nan;100109.50;5042858;28;19920;-76
2021/04/03 12:24:48;;;;;;;;;;;;;;;10.46;nan;100108.16;5058912;28;20367;-77
2021/04/03 12:27:14;;;;;;;;;;;;;;;10.19;nan;100100.78;5059547;28;19912;-76
2021/04/03 12:29:39;;;;;;;;;;;;;;;12.24;nan;100093.06;5040848;28;20399;-77
2021/04/03 12:32:05;;;;;;;;;;;;;;;10.19;nan;100098.22;5060198;28;19924;-76
2021/04/03 12:34:30;;;;;;;;;;;;;;;10.11;nan;100102.63;5060716;28;19928;-76
2021/04/03 12:36:56;;;;;;;;;;;;;;;10.91;nan;100104.09;5025959;28;19916;-76
2021/04/03 12:39:21;;;;;;;;;;;;;;;12.76;nan;100086.75;5060250;28;20503;-76
2021/04/03 12:41:46;;;;;;;;;;;;;;;11.55;nan;100079.78;5037485;28;21109;-76
2021/04/03 12:44:12;;;;;;;;;;;;;;;10.94;nan;100088.59;5058954;28;19917;-77
2021/04/03 12:46:37;;;;;;;;;;;;;;;9.83;nan;100087.50;5059233;28;19916;-76
2021/04/03 12:49:03;;;;;;;;;;;;;;;9.95;nan;100089.94;5061043;28;19922;-76
2021/04/03 12:51:28;;;;;;;;;;;;;;;11.03;nan;100084.13;5059286;28;19921;-76
2021/04/03 12:53:53;;;;;;;;;;;;;;;12.02;nan;100072.88;5041428;28;19967;-77
2021/04/03 12:56:19;;;;;;;;;;;;;;;11.47;nan;100079.06;5060263;28;20411;-76
2021/04/03 12:58:44;;;;;;;;;;;;;;;11.35;nan;100069.84;5060698;28;19921;-77
2021/04/03 13:01:10;;;;;;;;;;;;;;;10.54;nan;100082.31;5059138;28;19920;-76
2021/04/03 13:03:35;;;;;;;;;;;;;;;11.72;nan;100070.00;5040946;28;19931;-77
2021/04/03 13:06:01;;;;;;;;;;;;;;;11.63;nan;100070.19;5039820;28;20383;-76
2021/04/03 13:08:27;;;;;;;;;;;;;;;11.73;nan;100071.69;5056519;28;20995;-76
2021/04/03 13:10:52;;;;;;;;;;;;;;;12.89;nan;100067.47;5058416;28;19971;-75
2021/04/03 13:13:18;;;;;;;;;;;;;;;13.69;nan;100062.84;5040866;28;19924;-76
2021/04/03 13:15:43;;;;;;;;;;;;;;;11.49;nan;100078.19;5039936;28;20727;-75
2021/04/03 13:18:09;;;;;;;;;;;;;;;11.45;nan;100067.97;5058415;28;19929;-76
2021/04/03 13:20:35;;;;;;;;;;;;;;;11.68;nan;100063.19;5056734;28;19921;-76
2021/04/03 13:23:03;;;;;;;;;;;;;;;10.86;nan;100066.38;5058647;28;19974;-76
2021/04/03 13:25:29;;;;;;;;;;;;;;;10.40;nan;100071.34;5037491;28;19924;-76
2021/04/03 13:27:54;;;;;;;;;;;;;;;11.00;nan;100062.72;5058172;28;20739;-76
2021/04/03 13:30:20;;;;;;;;;;;;;;;10.79;nan;100059.63;5039193;28;19928;-76
2021/04/03 13:32:46;;;;;;;;;;;;;;;13.57;nan;100056.28;5032905;28;20277;-77
2021/04/03 13:35:11;;;;;;;;;;;;;;;11.70;nan;100060.59;5040369;28;19955;-76
2021/04/03 13:37:36;;;;;;;;;;;;;;;10.91;nan;100057.72;5057639;28;19932;-76
2021/04/03 13:40:02;;;;;;;;;;;;;;;10.73;nan;100054.56;5038993;28;19939;-76
2021/04/03 13:42:28;;;;;;;;;;;;;;;11.49;nan;100051.53;5058211;28;19926;-76
2021/04/03 13:44:53;;;;;;;;;;;;;;;11.06;nan;100054.88;5055688;28;19916;-76
2021/04/03 13:47:18;;;;;;;;;;;;;;;11.68;nan;100049.47;5041312;28;19970;-76
2021/04/03 13:49:44;;;;;;;;;;;;;;;13.21;nan;100041.72;5038912;28;20006;-76
2021/04/03 13:52:09;;;;;;;;;;;;;;;12.48;nan;100043.47;5058319;28;19916;-76
2021/04/03 13:54:35;;;;;;;;;;;;;;;11.97;nan;100046.28;5021730;28;19943;-76
2021/04/03 13:57:00;;;;;;;;;;;;;;;12.61;nan;100041.41;5040041;28;19921;-76
2021/04/03 13:59:26;;;;;;;;;;;;;;;11.86;nan;100036.19;5022250;28;19916;-76
2021/04/03 14:01:53;;;;;;;;;;;;;;;11.32;nan;100032.94;5058071;28;19929;-76
2021/04/03 14:04:18;;;;;;;;;;;;;;;12.28;nan;100043.06;5040359;28;19920;-75
2021/04/03 14:06:44;;;;;;;;;;;;;;;14.33;nan;100029.03;5040151;28;21270;-76
2021/04/03 14:09:09;;;;;;;;;;;;;;;13.87;nan;100026.97;5035335;28;19930;-76
2021/04/03 14:11:34;;;;;;;;;;;;;;;14.62;nan;100020.38;5022669;28;19924;-76
2021/04/03 14:14:00;;;;;;;;;;;;;;;15.83;nan;100010.16;5038404;28;20292;-76
2021/04/03 14:16:25;;;;;;;;;;;;;;;15.43;nan;100016.75;5038842;28;19943;-76
2021/04/03 14:18:50;;;;;;;;;;;;;;;13.73;nan;100020.47;5056586;28;19923;-76
2021/04/03 14:21:16;;;;;;;;;;;;;;;12.62;nan;100022.47;5038125;28;19924;-76
2021/04/03 14:23:41;;;;;;;;;;;;;;;12.93;nan;100012.22;5037660;28;19927;-76
2021/04/03 14:26:06;;;;;;;;;;;;;;;14.10;nan;100003.81;5038224;28;19931;-76
2021/04/03 14:28:32;;;;;;;;;;;;;;;14.73;nan;99988.88;5036662;28;19923;-76
2021/04/03 14:30:57;;;;;;;;;;;;;;;15.46;nan;99985.50;5037803;28;20010;-76
2021/04/03 14:33:23;;;;;;;;;;;;;;;13.45;nan;99996.22;5057206;28;20382;-75
2021/04/03 14:35:48;;;;;;;;;;;;;;;13.32;nan;99996.59;5038682;28;19920;-76
2021/04/03 14:38:13;;;;;;;;;;;;;;;13.81;nan;99992.59;5036608;28;19927;-76
2021/04/03 14:40:39;;;;;;;;;;;;;;;13.04;nan;99988.66;5056025;28;19931;-76
2021/04/03 14:43:04;;;;;;;;;;;;;;;12.38;nan;99987.72;5055863;28;19920;-76
2021/04/03 14:45:30;;;;;;;;;;;;;;;12.96;nan;99991.44;5034913;28;19920;-76
2021/04/03 14:47:55;;;;;;;;;;;;;;;12.91;nan;99985.56;5038236;28;20617;-76
2021/04/03 14:50:20;;;;;;;;;;;;;;;14.98;nan;99977.69;5048987;28;19920;-76
2021/04/03 14:52:46;;;;;;;;;;;;;;;12.71;nan;99990.38;5056995;28;19934;-76
2021/04/03 14:55:12;;;;;;;;;;;;;;;13.50;nan;99984.00;5057055;28;20384;-76
2021/04/03 14:57:39;;;;;;;;;;;;;;;12.79;nan;99983.28;5059899;28;19916;-75
2021/04/03 15:00:05;;;;;;;;;;;;;;;12.02;nan;99973.91;5061622;28;19986;-76
2021/04/03 15:02:31;;;;;;;;;;;;;;;11.58;nan;99979.09;5060468;28;19916;-76
2021/04/03 15:04:56;;;;;;;;;;;;;;;12.30;nan;99966.41;5052988;28;19916;-76
2021/04/03 15:07:21;;;;;;;;;;;;;;;11.99;nan;99969.66;5043292;28;19986;-75
2021/04/03 15:09:46;;;;;;;;;;;;;;;11.09;nan;99975.75;5041264;28;20887;-77
2021/04/03 15:12:12;;;;;;;;;;;;;;;11.95;nan;99967.19;5059925;28;19916;-76
2021/04/03 15:14:37;;;;;;;;;;;;;;;11.68;nan;99966.88;5042539;28;19923;-76
2021/04/03 15:17:02;;;;;;;;;;;;;;;12.30;nan;99958.66;5041101;28;20015;-76
2021/04/03 15:19:28;;;;;;;;;;;;;;;11.81;nan;99970.03;5060933;28;20010;-76
2021/04/03 15:21:53;;;;;;;;;;;;;;;11.70;nan;99958.22;5060521;28;20420;-76
2021/04/03 15:24:19;;;;;;;;;;;;;;;12.35;nan;99954.22;5060753;28;19971;-76
2021/04/03 15:26:44;;;;;;;;;;;;;;;12.23;nan;99957.09;5040682;28;20772;-75
2021/04/03 15:29:13;;;;;;;;;;;;;;;11.97;nan;99952.50;5059535;28;20007;-75
2021/04/03 15:31:39;;;;;;;;;;;;;;;11.73;nan;99950.41;5040805;28;19984;-76
2021/04/03 15:34:04;;;;;;;;;;;;;;;10.76;nan;99955.75;5043220;28;19955;-76
2021/04/03 15:36:29;;;;;;;;;;;;;;;10.64;nan;99951.66;5039959;28;19923;-76
2021/04/03 15:38:55;;;;;;;;;;;;;;;10.61;nan;99952.56;5060486;28;19920;-75
2021/04/03 15:41:22;;;;;;;;;;;;;;;11.17;nan;99949.81;5059852;28;19920;-76
2021/04/03 15:43:47;;;;;;;;;;;;;;;11.50;nan;99950.06;5059663;28;20405;-76
2021/04/03 15:46:13;;;;;;;;;;;;;;;11.18;nan;99954.13;5059058;28;20447;-75
2021/04/03 15:48:39;;;;;;;;;;;;;;;11.02;nan;99952.72;5043372;28;19920;-76
2021/04/03 15:51:04;;;;;;;;;;;;;;;11.16;nan;99940.41;5060618;28;20266;-76
2021/04/03 15:53:29;;;;;;;;;;;;;;;10.70;nan;99941.25;5043548;28;20381;-75
2021/04/03 15:55:55;;;;;;;;;;;;;;;11.02;nan;99940.66;5042957;28;19924;-76
2021/04/03 15:58:20;;;;;;;;;;;;;;;11.57;nan;99940.47;5041859;28;19927;-76
2021/04/03 16:00:47;;;;;;;;;;;;;;;11.08;nan;99931.97;5021721;28;19942;-76
2021/04/03 16:03:12;;;;;;;;;;;;;;;11.34;nan;99930.63;5023198;28;19919;-75
2021/04/03 16:05:38;;;;;;;;;;;;;;;11.50;nan;99938.00;5054601;28;20252;-76
2021/04/03 16:08:03;;;;;;;;;;;;;;;11.62;nan;99934.31;5054379;28;19988;-76
2021/04/03 16:10:29;;;;;;;;;;;;;;;11.34;nan;99938.34;5025232;28;20382;-76
2021/04/03 16:12:55;;;;;;;;;;;;;;;11.61;nan;99934.31;5057507;28;19920;-76
2021/04/03 16:15:20;;;;;;;;;;;;;;;11.65;nan;99933.38;5041096;28;19998;-76
2021/04/03 16:17:45;;;;;;;;;;;;;;;11.36;nan;99932.28;5059826;28;19920;-76
2021/04/03 16:20:11;;;;;;;;;;;;;;;10.91;nan;99934.88;5058184;28;20342;-76
2021/04/03 16:22:36;;;;;;;;;;;;;;;11.35;nan;99929.72;5059176;28;19952;-76
2021/04/03 16:25:02;;;;;;;;;;;;;;;11.26;nan;99930.75;5040156;28;19924;-76
2021/04/03 16:27:27;;;;;;;;;;;;;;;11.04;nan;99925.19;5057004;28;19916;-76
2021/04/03 16:29:53;;;;;;;;;;;;;;;11.00;nan;99932.13;5058700;28;20546;-75
2021/04/03 16:32:18;;;;;;;;;;;;;;;11.31;nan;99928.94;5042150;28;19959;-76
2021/04/03 16:34:43;;;;;;;;;;;;;;;11.26;nan;99920.44;5058476;28;19920;-76
2021/04/03 16:37:09;;;;;;;;;;;;;;;10.99;nan;99916.66;5059165;28;19925;-76
2021/04/03 16:39:34;;;;;;;;;;;;;;;10.68;nan;99922.41;5040414;28;19931;-76
2021/04/03 16:41:59;;;;;;;;;;;;;;;10.71;nan;99921.50;5058682;28;20040;-76
2021/04/03 16:44:25;;;;;;;;;;;;;;;10.59;nan;99917.41;5041178;28;19924;-76
2021/04/03 16:46:50;;;;;;;;;;;;;;;10.78;nan;99918.75;5041663;28;20381;-76
2021/04/03 16:49:17;;;;;;;;;;;;;;;10.59;nan;99909.69;5041749;28;19917;-76
2021/04/03 16:51:43;;;;;;;;;;;;;;;10.30;nan;99912.75;5059941;28;20387;-75
2021/04/03 16:54:08;;;;;;;;;;;;;;;10.45;nan;99909.91;5041847;28;19924;-76
2021/04/03 16:56:35;;;;;;;;;;;;;;;10.34;nan;99912.66;5041441;28;20030;-76
2021/04/03 16:59:00;;;;;;;;;;;;;;;10.23;nan;99901.66;5040313;28;19956;-76
2021/04/03 17:01:27;;;;;;;;;;;;;;;10.22;nan;99903.38;5058456;28;20053;-76
2021/04/03 17:03:52;;;;;;;;;;;;;;;10.17;nan;99899.16;5040966;28;19931;-76
2021/04/03 17:06:18;;;;;;;;;;;;;;;10.09;nan;99906.19;5040666;28;20313;-76
2021/04/03 17:08:43;;;;;;;;;;;;;;;10.33;nan;99905.84;5040892;28;20032;-76
2021/04/03 17:11:08;;;;;;;;;;;;;;;10.34;nan;99906.66;5040531;28;19916;-75
2021/04/03 17:13:34;;;;;;;;;;;;;;;9.99;nan;99903.75;5040749;28;19974;-76
2021/04/03 17:15:59;;;;;;;;;;;;;;;10.40;nan;99906.53;5039059;28;20365;-76
2021/04/03 17:18:24;;;;;;;;;;;;;;;10.67;nan;99900.06;5059220;28;19942;-76
2021/04/03 17:20:50;;;;;;;;;;;;;;;10.92;nan;99902.19;5041847;28;20361;-76
2021/04/03 17:23:15;;;;;;;;;;;;;;;10.94;nan;99903.88;5040720;28;19920;-76
2021/04/03 17:25:41;;;;;;;;;;;;;;;10.89;nan;99896.22;5041218;28;20813;-76
2021/04/03 17:28:06;;;;;;;;;;;;;;;11.07;nan;99895.03;5056914;28;19970;-76
2021/04/03 17:30:31;;;;;;;;;;;;;;;11.42;nan;99892.59;5059669;28;19916;-76
2021/04/03 17:32:57;;;;;;;;;;;;;;;11.65;nan;99898.09;5059788;28;19920;-76
2021/04/03 17:35:22;;;;;;;;;;;;;;;12.19;nan;99901.25;5060162;28;20914;-76
2021/04/03 17:37:48;;;;;;;;;;;;;;;12.16;nan;99898.72;5041534;28;20377;-76
2021/04/03 17:40:13;;;;;;;;;;;;;;;12.03;nan;99891.28;5040617;28;20039;-76
2021/04/03 17:42:39;;;;;;;;;;;;;;;11.37;nan;99891.88;5040222;28;20019;-76
2021/04/03 17:45:05;;;;;;;;;;;;;;;11.21;nan;99891.31;5040954;28;20566;-76
2021/04/03 17:47:30;;;;;;;;;;;;;;;11.37;nan;99897.03;5060132;28;19970;-77
2021/04/03 17:49:55;;;;;;;;;;;;;;;11.52;nan;99899.28;5042025;28;19916;-76
2021/04/03 17:52:21;;;;;;;;;;;;;;;11.80;nan;99890.94;5041347;28;19958;-76
2021/04/03 17:54:46;;;;;;;;;;;;;;;11.90;nan;99893.28;5058971;28;19993;-76
2021/04/03 17:57:11;;;;;;;;;;;;;;;11.85;nan;99899.41;5025847;28;19916;-77
2021/04/03 17:59:37;;;;;;;;;;;;;;;12.38;nan;99896.47;5059705;28;19916;-76
2021/04/03 18:02:03;;;;;;;;;;;;;;;12.77;nan;99899.75;5040799;28;20401;-76
2021/04/03 18:04:29;;;;;;;;;;;;;;;13.09;nan;99891.13;5041334;28;19929;-76
2021/04/03 18:06:54;;;;;;;;;;;;;;;12.98;nan;99904.34;5037960;28;20581;-76
2021/04/03 18:09:20;;;;;;;;;;;;;;;13.06;nan;99893.78;5039450;28;19923;-76
2021/04/03 18:11:45;;;;;;;;;;;;;;;13.10;nan;99894.56;5041126;28;19920;-76
2021/04/03 18:14:11;;;;;;;;;;;;;;;13.05;nan;99897.28;5040822;28;20439;-76
2021/04/03 18:16:36;;;;;;;;;;;;;;;12.91;nan;99900.25;5059134;28;21165;-76
2021/04/03 18:19:02;;;;;;;;;;;;;;;12.94;nan;99899.31;5042005;28;20348;-76
2021/04/03 18:21:29;;;;;;;;;;;;;;;13.01;nan;99898.25;5059621;28;19935;-75
2021/04/03 18:23:55;;;;;;;;;;;;;;;12.83;nan;99902.19;5039385;28;19978;-76
2021/04/03 18:26:20;;;;;;;;;;;;;;;12.86;nan;99902.09;5039346;28;19974;-76
2021/04/03 18:28:46;;;;;;;;;;;;;;;12.72;nan;99902.44;5023195;28;20331;-76
2021/04/03 18:31:11;;;;;;;;;;;;;;;12.77;nan;99904.91;5030870;28;19946;-76
2021/04/03 18:33:37;;;;;;;;;;;;;;;12.81;nan;99893.59;5058294;28;20302;-76
2021/04/03 18:36:02;;;;;;;;;;;;;;;12.81;nan;99898.78;5036990;28;20289;-76
2021/04/03 18:38:28;;;;;;;;;;;;;;;11.81;nan;99908.09;5038976;28;19923;-76
2021/04/03 18:40:53;;;;;;;;;;;;;;;10.68;nan;99909.50;5039136;28;19920;-76
2021/04/03 18:43:19;;;;;;;;;;;;;;;10.50;nan;99912.41;5057303;28;20356;-76
2021/04/03 18:45:44;;;;;;;;;;;;;;;10.35;nan;99908.34;5040279;28;19961;-76
2021/04/03 18:48:10;;;;;;;;;;;;;;;9.94;nan;99913.25;5058299;28;20007;-76
2021/04/03 18:50:35;;;;;;;;;;;;;;;9.95;nan;99912.38;5058775;28;19922;-76
2021/04/03 18:53:01;;;;;;;;;;;;;;;9.84;nan;99909.94;5041460;28;19924;-76
2021/04/03 18:55:26;;;;;;;;;;;;;;;9.42;nan;99909.69;5041648;28;19949;-76
2021/04/03 18:57:52;;;;;;;;;;;;;;;9.58;nan;99909.50;5038396;28;20824;-76
2021/04/03 19:00:17;;;;;;;;;;;;;;;9.56;nan;99909.50;5041491;28;19966;-76
2021/04/03 19:02:43;;;;;;;;;;;;;;;9.79;nan;99906.59;5058851;28;20053;-76
2021/04/03 19:05:09;;;;;;;;;;;;;;;9.73;nan;99893.81;5029580;28;20489;-76
2021/04/03 19:07:35;;;;;;;;;;;;;;;9.83;nan;99897.13;5039434;28;19978;-77
2021/04/03 19:10:00;;;;;;;;;;;;;;;9.56;nan;99904.34;5039132;28;20341;-76
2021/04/03 19:12:26;;;;;;;;;;;;;;;9.62;nan;99899.13;5040788;28;19921;-76
2021/04/03 19:14:51;;;;;;;;;;;;;;;9.35;nan;99907.19;5054812;28;20769;-76
2021/04/03 19:17:16;;;;;;;;;;;;;;;9.19;nan;99901.38;5041465;28;19920;-76
2021/04/03 19:19:42;;;;;;;;;;;;;;;8.86;nan;99912.91;5040157;28;19917;-76
2021/04/03 19:22:07;;;;;;;;;;;;;;;8.91;nan;99916.25;5056490;28;19978;-76
2021/04/03 19:24:33;;;;;;;;;;;;;;;9.03;nan;99916.13;5023473;28;19919;-76
2021/04/03 19:26:58;;;;;;;;;;;;;;;8.75;nan;99910.44;5041176;28;20011;-76
2021/04/03 19:29:24;;;;;;;;;;;;;;;8.79;nan;99918.09;5040367;28;19951;-76
2021/04/03 19:31:49;;;;;;;;;;;;;;;8.66;nan;99919.06;5055262;28;19986;-76
2021/04/03 19:34:14;;;;;;;;;;;;;;;8.42;nan;99917.59;5056199;28;19916;-76
2021/04/03 19:36:40;;;;;;;;;;;;;;;8.24;nan;99918.56;5057383;28;20744;-76
2021/04/03 19:39:06;;;;;;;;;;;;;;;8.18;nan;99923.72;5040310;28;19917;-76
2021/04/03 19:41:31;;;;;;;;;;;;;;;8.09;nan;99929.78;5041806;28;19978;-76
2021/04/03 19:43:56;;;;;;;;;;;;;;;8.01;nan;99930.72;5061841;28;19966;-76
2021/04/03 19:46:22;;;;;;;;;;;;;;;7.79;nan;99933.38;5059977;28;20420;-76
2021/04/03 19:48:47;;;;;;;;;;;;;;;7.45;nan;99931.00;5045983;28;20293;-76
2021/04/03 19:51:12;;;;;;;;;;;;;;;7.50;nan;99944.66;5060228;28;19979;-77
2021/04/03 19:53:39;;;;;;;;;;;;;;;7.77;nan;99937.66;5043736;28;20165;-76
2021/04/03 19:56:06;;;;;;;;;;;;;;;7.61;nan;99946.31;5045368;28;20582;-76
2021/04/03 19:58:31;;;;;;;;;;;;;;;7.65;nan;99958.25;5060961;28;19916;-76
2021/04/03 20:00:57;;;;;;;;;;;;;;;8.11;nan;99948.56;5041210;28;19986;-75
2021/04/03 20:03:22;;;;;;;;;;;;;;;7.91;nan;99950.41;5043438;28;19924;-76
2021/04/03 20:05:47;;;;;;;;;;;;;;;7.56;nan;99954.00;5043367;28;19917;-76